sensor_id;sensor_type;location;lat;lon;timestamp;temperature;humidity
21830;DHT22;11077;50.264;6.798;2024-03-02T00:00:51;6.30;99.90
21830;DHT22;11077;50.264;6.798;2024-03-02T00:03:19;6.30;99.90
21830;DHT22;11077;50.264;6.798;2024-03-02T00:05:49;6.30;99.90
21830;DHT22;11077;50.264;6.798;2024-03-02T00:08:23;6.40;99.90
21830;DHT22;11077;50.264;6.798;2024-03-02T00:10:51;6.30;99.90
21830;DHT22;11077;50.264;6.798;2024-03-02T00:13:21;6.30;99.90
21830;DHT22;11077;50.264;6.798;2024-03-02T00:15:53;6.30;99.90
21830;DHT22;11077;50.264;6.798;2024-03-02T00:18:24;6.30;99.90
21830;DHT22;11077;50.264;6.798;2024-03-02T00:20:53;6.20;99.90
21830;DHT22;11077;50.264;6.798;2024-03-02T00:23:21;6.20;99.90
21830;DHT22;11077;50.264;6.798;2024-03-02T00:25:50;6.20;99.90
21830;DHT22;11077;50.264;6.798;2024-03-02T00:28:22;6.20;99.90
21830;DHT22;11077;50.264;6.798;2024-03-02T00:30:56;6.20;99.90
21830;DHT22;11077;50.264;6.798;2024-03-02T00:33:26;6.20;99.90
21830;DHT22;11077;50.264;6.798;2024-03-02T00:35:54;6.20;99.90
21830;DHT22;11077;50.264;6.798;2024-03-02T00:38:22;6.20;99.90
21830;DHT22;11077;50.264;6.798;2024-03-02T00:40:49;6.20;99.90
21830;DHT22;11077;50.264;6.798;2024-03-02T00:43:42;6.20;99.90
21830;DHT22;11077;50.264;6.798;2024-03-02T00:46:11;6.20;99.90
21830;DHT22;11077;50.264;6.798;2024-03-02T00:48:39;6.20;99.90
21830;DHT22;11077;50.264;6.798;2024-03-02T00:51:09;6.10;99.90
21830;DHT22;11077;50.264;6.798;2024-03-02T00:53:37;6.20;99.90
21830;DHT22;11077;50.264;6.798;2024-03-02T00:56:05;6.20;99.90
21830;DHT22;11077;50.264;6.798;2024-03-02T00:58:37;6.30;99.90
21830;DHT22;11077;50.264;6.798;2024-03-02T01:01:04;6.20;99.90
21830;DHT22;11077;50.264;6.798;2024-03-02T01:03:33;6.30;99.90
21830;DHT22;11077;50.264;6.798;2024-03-02T01:06:00;6.30;99.90
21830;DHT22;11077;50.264;6.798;2024-03-02T01:08:26;6.30;99.90
21830;DHT22;11077;50.264;6.798;2024-03-02T01:10:53;6.40;99.90
21830;DHT22;11077;50.264;6.798;2024-03-02T01:13:22;6.40;99.90
21830;DHT22;11077;50.264;6.798;2024-03-02T01:15:51;6.30;99.90
21830;DHT22;11077;50.264;6.798;2024-03-02T01:18:19;6.40;99.90
21830;DHT22;11077;50.264;6.798;2024-03-02T01:20:46;6.40;99.90
21830;DHT22;11077;50.264;6.798;2024-03-02T01:23:13;6.50;99.90
21830;DHT22;11077;50.264;6.798;2024-03-02T01:25:40;6.50;99.90
21830;DHT22;11077;50.264;6.798;2024-03-02T01:28:08;6.50;99.90
21830;DHT22;11077;50.264;6.798;2024-03-02T01:30:35;6.50;99.90
21830;DHT22;11077;50.264;6.798;2024-03-02T01:33:04;6.50;99.90
21830;DHT22;11077;50.264;6.798;2024-03-02T01:35:32;6.50;99.90
21830;DHT22;11077;50.264;6.798;2024-03-02T01:38:00;6.60;99.90
21830;DHT22;11077;50.264;6.798;2024-03-02T01:40:27;6.60;99.90
21830;DHT22;11077;50.264;6.798;2024-03-02T01:42:55;6.60;99.90
21830;DHT22;11077;50.264;6.798;2024-03-02T01:45:24;6.60;99.90
21830;DHT22;11077;50.264;6.798;2024-03-02T01:47:51;6.60;99.90
21830;DHT22;11077;50.264;6.798;2024-03-02T01:50:31;6.60;99.90
21830;DHT22;11077;50.264;6.798;2024-03-02T01:53:14;6.60;99.90
21830;DHT22;11077;50.264;6.798;2024-03-02T01:55:56;6.60;99.90
21830;DHT22;11077;50.264;6.798;2024-03-02T01:58:23;6.60;99.90
21830;DHT22;11077;50.264;6.798;2024-03-02T02:00:50;6.60;99.90
21830;DHT22;11077;50.264;6.798;2024-03-02T02:03:18;6.70;99.90
21830;DHT22;11077;50.264;6.798;2024-03-02T02:05:47;6.70;99.90
21830;DHT22;11077;50.264;6.798;2024-03-02T02:08:14;6.70;99.90
21830;DHT22;11077;50.264;6.798;2024-03-02T02:10:41;6.70;99.90
21830;DHT22;11077;50.264;6.798;2024-03-02T02:13:08;6.70;99.90
21830;DHT22;11077;50.264;6.798;2024-03-02T02:15:36;6.70;99.90
21830;DHT22;11077;50.264;6.798;2024-03-02T02:18:03;6.70;99.90
21830;DHT22;11077;50.264;6.798;2024-03-02T02:20:31;6.70;99.90
21830;DHT22;11077;50.264;6.798;2024-03-02T02:22:59;6.70;99.90
21830;DHT22;11077;50.264;6.798;2024-03-02T02:25:27;6.60;99.90
21830;DHT22;11077;50.264;6.798;2024-03-02T02:27:55;6.70;99.90
21830;DHT22;11077;50.264;6.798;2024-03-02T02:30:24;6.70;99.90
21830;DHT22;11077;50.264;6.798;2024-03-02T02:32:51;6.70;99.90
21830;DHT22;11077;50.264;6.798;2024-03-02T02:35:18;6.70;99.90
21830;DHT22;11077;50.264;6.798;2024-03-02T02:37:46;6.70;99.90
21830;DHT22;11077;50.264;6.798;2024-03-02T02:40:15;6.70;99.90
21830;DHT22;11077;50.264;6.798;2024-03-02T02:42:44;6.70;99.90
21830;DHT22;11077;50.264;6.798;2024-03-02T02:45:12;6.70;99.90
21830;DHT22;11077;50.264;6.798;2024-03-02T02:47:40;6.70;99.90
21830;DHT22;11077;50.264;6.798;2024-03-02T02:50:08;6.80;99.90
21830;DHT22;11077;50.264;6.798;2024-03-02T02:52:36;6.70;99.90
21830;DHT22;11077;50.264;6.798;2024-03-02T02:55:07;6.70;99.90
21830;DHT22;11077;50.264;6.798;2024-03-02T02:57:37;6.80;99.90
21830;DHT22;11077;50.264;6.798;2024-03-02T03:00:06;6.80;99.90
21830;DHT22;11077;50.264;6.798;2024-03-02T03:02:37;6.70;99.90
21830;DHT22;11077;50.264;6.798;2024-03-02T03:05:06;6.70;99.90
21830;DHT22;11077;50.264;6.798;2024-03-02T03:07:33;6.70;99.90
21830;DHT22;11077;50.264;6.798;2024-03-02T03:10:02;6.70;99.90
21830;DHT22;11077;50.264;6.798;2024-03-02T03:12:30;6.70;99.90
21830;DHT22;11077;50.264;6.798;2024-03-02T03:14:59;6.70;99.90
21830;DHT22;11077;50.264;6.798;2024-03-02T03:17:26;6.70;99.90
21830;DHT22;11077;50.264;6.798;2024-03-02T03:19:54;6.70;99.90
21830;DHT22;11077;50.264;6.798;2024-03-02T03:22:21;6.70;99.90
21830;DHT22;11077;50.264;6.798;2024-03-02T03:24:48;6.60;99.90
21830;DHT22;11077;50.264;6.798;2024-03-02T03:27:16;6.60;99.90
21830;DHT22;11077;50.264;6.798;2024-03-02T03:29:43;6.60;99.90
21830;DHT22;11077;50.264;6.798;2024-03-02T03:32:11;6.60;99.90
21830;DHT22;11077;50.264;6.798;2024-03-02T03:34:39;6.50;99.90
21830;DHT22;11077;50.264;6.798;2024-03-02T03:37:06;6.50;99.90
21830;DHT22;11077;50.264;6.798;2024-03-02T03:39:34;6.50;99.90
21830;DHT22;11077;50.264;6.798;2024-03-02T03:42:02;6.50;99.90
21830;DHT22;11077;50.264;6.798;2024-03-02T03:44:29;6.50;99.90
21830;DHT22;11077;50.264;6.798;2024-03-02T03:46:56;6.40;99.90
21830;DHT22;11077;50.264;6.798;2024-03-02T03:49:25;6.40;99.90
21830;DHT22;11077;50.264;6.798;2024-03-02T03:51:52;6.30;99.90
21830;DHT22;11077;50.264;6.798;2024-03-02T03:54:19;6.30;99.90
21830;DHT22;11077;50.264;6.798;2024-03-02T03:56:46;6.30;99.90
21830;DHT22;11077;50.264;6.798;2024-03-02T03:59:13;6.30;99.90
21830;DHT22;11077;50.264;6.798;2024-03-02T04:01:40;6.30;99.90
21830;DHT22;11077;50.264;6.798;2024-03-02T04:04:08;6.30;99.90
21830;DHT22;11077;50.264;6.798;2024-03-02T04:06:36;6.20;99.90
21830;DHT22;11077;50.264;6.798;2024-03-02T04:09:03;6.20;99.90
21830;DHT22;11077;50.264;6.798;2024-03-02T04:11:30;6.30;99.90
21830;DHT22;11077;50.264;6.798;2024-03-02T04:13:58;6.20;99.90
21830;DHT22;11077;50.264;6.798;2024-03-02T04:16:25;6.30;99.90
21830;DHT22;11077;50.264;6.798;2024-03-02T04:18:52;6.20;99.90
21830;DHT22;11077;50.264;6.798;2024-03-02T04:21:20;6.20;99.90
21830;DHT22;11077;50.264;6.798;2024-03-02T04:23:48;6.20;99.90
21830;DHT22;11077;50.264;6.798;2024-03-02T04:26:16;6.10;99.90
21830;DHT22;11077;50.264;6.798;2024-03-02T04:28:47;6.10;99.90
21830;DHT22;11077;50.264;6.798;2024-03-02T04:31:15;6.10;99.90
21830;DHT22;11077;50.264;6.798;2024-03-02T04:33:42;6.00;99.90
21830;DHT22;11077;50.264;6.798;2024-03-02T04:36:09;6.00;99.90
21830;DHT22;11077;50.264;6.798;2024-03-02T04:38:36;5.90;99.90
21830;DHT22;11077;50.264;6.798;2024-03-02T04:41:05;6.00;99.90
21830;DHT22;11077;50.264;6.798;2024-03-02T04:43:33;5.90;99.90
21830;DHT22;11077;50.264;6.798;2024-03-02T04:46:00;6.00;99.90
21830;DHT22;11077;50.264;6.798;2024-03-02T04:48:27;5.90;99.90
21830;DHT22;11077;50.264;6.798;2024-03-02T04:50:55;5.80;99.90
21830;DHT22;11077;50.264;6.798;2024-03-02T04:53:22;5.80;99.90
21830;DHT22;11077;50.264;6.798;2024-03-02T04:55:49;5.80;99.90
21830;DHT22;11077;50.264;6.798;2024-03-02T04:58:46;5.70;99.90
21830;DHT22;11077;50.264;6.798;2024-03-02T05:01:13;5.70;99.90
21830;DHT22;11077;50.264;6.798;2024-03-02T05:03:42;5.60;99.90
21830;DHT22;11077;50.264;6.798;2024-03-02T05:06:09;5.60;99.90
21830;DHT22;11077;50.264;6.798;2024-03-02T05:08:36;5.50;99.90
21830;DHT22;11077;50.264;6.798;2024-03-02T05:11:03;5.50;99.90
21830;DHT22;11077;50.264;6.798;2024-03-02T05:13:46;5.40;99.90
21830;DHT22;11077;50.264;6.798;2024-03-02T05:16:13;5.40;99.90
21830;DHT22;11077;50.264;6.798;2024-03-02T05:18:41;5.30;99.90
21830;DHT22;11077;50.264;6.798;2024-03-02T05:21:08;5.30;99.90
21830;DHT22;11077;50.264;6.798;2024-03-02T05:23:35;5.20;99.90
21830;DHT22;11077;50.264;6.798;2024-03-02T05:26:03;5.30;99.90
21830;DHT22;11077;50.264;6.798;2024-03-02T05:28:30;5.30;99.90
21830;DHT22;11077;50.264;6.798;2024-03-02T05:30:58;5.20;99.90
21830;DHT22;11077;50.264;6.798;2024-03-02T05:33:26;5.20;99.90
21830;DHT22;11077;50.264;6.798;2024-03-02T05:35:54;5.20;99.90
21830;DHT22;11077;50.264;6.798;2024-03-02T05:38:21;5.20;99.90
21830;DHT22;11077;50.264;6.798;2024-03-02T05:40:48;5.20;99.90
21830;DHT22;11077;50.264;6.798;2024-03-02T05:43:16;5.10;99.90
21830;DHT22;11077;50.264;6.798;2024-03-02T05:45:44;5.10;99.90
21830;DHT22;11077;50.264;6.798;2024-03-02T05:48:12;5.10;99.90
21830;DHT22;11077;50.264;6.798;2024-03-02T05:50:39;5.00;99.90
21830;DHT22;11077;50.264;6.798;2024-03-02T05:53:06;5.00;99.90
21830;DHT22;11077;50.264;6.798;2024-03-02T05:55:33;5.00;99.90
21830;DHT22;11077;50.264;6.798;2024-03-02T05:58:01;5.00;99.90
21830;DHT22;11077;50.264;6.798;2024-03-02T06:00:43;4.90;99.90
21830;DHT22;11077;50.264;6.798;2024-03-02T06:03:12;4.90;99.90
21830;DHT22;11077;50.264;6.798;2024-03-02T06:05:39;4.90;99.90
21830;DHT22;11077;50.264;6.798;2024-03-02T06:08:06;4.90;99.90
21830;DHT22;11077;50.264;6.798;2024-03-02T06:10:34;4.80;99.90
21830;DHT22;11077;50.264;6.798;2024-03-02T06:13:01;4.80;99.90
21830;DHT22;11077;50.264;6.798;2024-03-02T06:15:28;4.80;99.90
21830;DHT22;11077;50.264;6.798;2024-03-02T06:17:56;4.80;99.90
21830;DHT22;11077;50.264;6.798;2024-03-02T06:20:24;4.80;99.90
21830;DHT22;11077;50.264;6.798;2024-03-02T06:22:52;4.70;99.90
21830;DHT22;11077;50.264;6.798;2024-03-02T06:25:19;4.70;99.90
21830;DHT22;11077;50.264;6.798;2024-03-02T06:27:47;4.70;99.90
21830;DHT22;11077;50.264;6.798;2024-03-02T06:30:15;4.70;99.90
21830;DHT22;11077;50.264;6.798;2024-03-02T06:32:42;4.70;99.90
21830;DHT22;11077;50.264;6.798;2024-03-02T06:35:09;4.70;99.90
21830;DHT22;11077;50.264;6.798;2024-03-02T06:37:39;4.70;99.90
21830;DHT22;11077;50.264;6.798;2024-03-02T06:40:13;4.60;99.90
21830;DHT22;11077;50.264;6.798;2024-03-02T06:42:40;4.60;99.90
21830;DHT22;11077;50.264;6.798;2024-03-02T06:45:08;4.60;99.90
21830;DHT22;11077;50.264;6.798;2024-03-02T06:47:35;4.60;99.90
21830;DHT22;11077;50.264;6.798;2024-03-02T06:50:03;4.60;99.90
21830;DHT22;11077;50.264;6.798;2024-03-02T06:52:30;4.60;99.90
21830;DHT22;11077;50.264;6.798;2024-03-02T06:54:59;4.70;99.90
21830;DHT22;11077;50.264;6.798;2024-03-02T06:57:27;4.70;99.90
21830;DHT22;11077;50.264;6.798;2024-03-02T06:59:54;4.70;99.90
21830;DHT22;11077;50.264;6.798;2024-03-02T07:02:24;4.70;99.90
21830;DHT22;11077;50.264;6.798;2024-03-02T07:04:52;4.70;99.90
21830;DHT22;11077;50.264;6.798;2024-03-02T07:07:20;4.70;99.90
21830;DHT22;11077;50.264;6.798;2024-03-02T07:09:47;4.70;99.90
21830;DHT22;11077;50.264;6.798;2024-03-02T07:12:16;4.80;99.90
21830;DHT22;11077;50.264;6.798;2024-03-02T07:14:43;4.80;99.90
21830;DHT22;11077;50.264;6.798;2024-03-02T07:17:28;4.80;99.90
21830;DHT22;11077;50.264;6.798;2024-03-02T07:19:59;4.80;99.90
21830;DHT22;11077;50.264;6.798;2024-03-02T07:22:30;4.80;99.90
21830;DHT22;11077;50.264;6.798;2024-03-02T07:24:57;4.80;99.90
21830;DHT22;11077;50.264;6.798;2024-03-02T07:27:27;4.80;99.90
21830;DHT22;11077;50.264;6.798;2024-03-02T07:29:54;4.80;99.90
21830;DHT22;11077;50.264;6.798;2024-03-02T07:32:22;4.80;99.90
21830;DHT22;11077;50.264;6.798;2024-03-02T07:34:49;4.90;99.90
21830;DHT22;11077;50.264;6.798;2024-03-02T07:37:17;4.90;99.90
21830;DHT22;11077;50.264;6.798;2024-03-02T07:39:46;4.90;99.90
21830;DHT22;11077;50.264;6.798;2024-03-02T07:42:13;4.90;99.90
21830;DHT22;11077;50.264;6.798;2024-03-02T07:44:44;4.90;99.90
21830;DHT22;11077;50.264;6.798;2024-03-02T07:47:11;4.90;99.90
21830;DHT22;11077;50.264;6.798;2024-03-02T07:49:39;5.00;99.90
21830;DHT22;11077;50.264;6.798;2024-03-02T07:52:06;5.00;99.90
21830;DHT22;11077;50.264;6.798;2024-03-02T07:54:33;5.00;99.90
21830;DHT22;11077;50.264;6.798;2024-03-02T07:57:01;5.00;99.90
21830;DHT22;11077;50.264;6.798;2024-03-02T07:59:29;5.00;99.90
21830;DHT22;11077;50.264;6.798;2024-03-02T08:01:59;5.10;99.90
21830;DHT22;11077;50.264;6.798;2024-03-02T08:04:27;5.10;99.90
21830;DHT22;11077;50.264;6.798;2024-03-02T08:06:55;5.20;99.90
21830;DHT22;11077;50.264;6.798;2024-03-02T08:09:22;5.10;99.90
21830;DHT22;11077;50.264;6.798;2024-03-02T08:11:49;5.10;99.90
21830;DHT22;11077;50.264;6.798;2024-03-02T08:14:16;5.20;99.90
21830;DHT22;11077;50.264;6.798;2024-03-02T08:16:44;5.20;99.90
21830;DHT22;11077;50.264;6.798;2024-03-02T08:19:14;5.20;99.90
21830;DHT22;11077;50.264;6.798;2024-03-02T08:21:42;5.30;99.90
21830;DHT22;11077;50.264;6.798;2024-03-02T08:24:09;5.30;99.90
21830;DHT22;11077;50.264;6.798;2024-03-02T08:26:37;5.30;99.90
21830;DHT22;11077;50.264;6.798;2024-03-02T08:29:04;5.40;99.90
21830;DHT22;11077;50.264;6.798;2024-03-02T08:31:31;5.40;99.90
21830;DHT22;11077;50.264;6.798;2024-03-02T08:33:58;5.40;99.90
21830;DHT22;11077;50.264;6.798;2024-03-02T08:36:27;5.40;99.90
21830;DHT22;11077;50.264;6.798;2024-03-02T08:38:54;5.50;99.90
21830;DHT22;11077;50.264;6.798;2024-03-02T08:41:22;5.60;99.90
21830;DHT22;11077;50.264;6.798;2024-03-02T08:43:49;5.60;99.90
21830;DHT22;11077;50.264;6.798;2024-03-02T08:46:17;5.70;99.90
21830;DHT22;11077;50.264;6.798;2024-03-02T08:48:44;5.70;99.90
21830;DHT22;11077;50.264;6.798;2024-03-02T08:51:11;5.90;99.90
21830;DHT22;11077;50.264;6.798;2024-03-02T08:53:41;6.00;99.90
21830;DHT22;11077;50.264;6.798;2024-03-02T08:56:09;6.10;99.90
21830;DHT22;11077;50.264;6.798;2024-03-02T08:58:39;6.30;99.90
21830;DHT22;11077;50.264;6.798;2024-03-02T09:01:07;6.50;99.90
21830;DHT22;11077;50.264;6.798;2024-03-02T09:03:36;6.60;99.90
21830;DHT22;11077;50.264;6.798;2024-03-02T09:06:04;6.70;99.90
21830;DHT22;11077;50.264;6.798;2024-03-02T09:08:31;6.80;99.90
21830;DHT22;11077;50.264;6.798;2024-03-02T09:11:00;6.80;99.90
21830;DHT22;11077;50.264;6.798;2024-03-02T09:13:27;7.00;99.90
21830;DHT22;11077;50.264;6.798;2024-03-02T09:15:54;7.20;99.90
21830;DHT22;11077;50.264;6.798;2024-03-02T09:18:22;7.40;99.90
21830;DHT22;11077;50.264;6.798;2024-03-02T09:20:49;7.40;99.90
21830;DHT22;11077;50.264;6.798;2024-03-02T09:23:17;7.40;99.90
21830;DHT22;11077;50.264;6.798;2024-03-02T09:25:50;7.40;99.90
21830;DHT22;11077;50.264;6.798;2024-03-02T09:29:06;7.50;99.90
21830;DHT22;11077;50.264;6.798;2024-03-02T09:31:39;7.70;99.90
21830;DHT22;11077;50.264;6.798;2024-03-02T09:34:07;7.80;99.90
21830;DHT22;11077;50.264;6.798;2024-03-02T09:36:34;7.80;99.90
21830;DHT22;11077;50.264;6.798;2024-03-02T09:39:05;7.80;99.90
21830;DHT22;11077;50.264;6.798;2024-03-02T09:41:35;7.80;99.90
21830;DHT22;11077;50.264;6.798;2024-03-02T09:44:05;7.70;99.90
21830;DHT22;11077;50.264;6.798;2024-03-02T09:46:32;7.80;99.90
21830;DHT22;11077;50.264;6.798;2024-03-02T09:49:02;7.70;99.90
21830;DHT22;11077;50.264;6.798;2024-03-02T09:51:30;7.70;99.90
21830;DHT22;11077;50.264;6.798;2024-03-02T09:54:01;7.80;99.90
21830;DHT22;11077;50.264;6.798;2024-03-02T09:56:32;7.70;99.90
21830;DHT22;11077;50.264;6.798;2024-03-02T09:59:00;7.70;99.90
21830;DHT22;11077;50.264;6.798;2024-03-02T10:01:31;7.80;99.90
21830;DHT22;11077;50.264;6.798;2024-03-02T10:04:00;7.90;99.90
21830;DHT22;11077;50.264;6.798;2024-03-02T10:06:28;8.00;99.90
21830;DHT22;11077;50.264;6.798;2024-03-02T10:08:56;8.00;99.90
21830;DHT22;11077;50.264;6.798;2024-03-02T10:11:28;8.00;99.90
21830;DHT22;11077;50.264;6.798;2024-03-02T10:14:15;8.00;99.90
21830;DHT22;11077;50.264;6.798;2024-03-02T10:16:44;8.00;99.90
21830;DHT22;11077;50.264;6.798;2024-03-02T10:19:18;7.90;99.90
21830;DHT22;11077;50.264;6.798;2024-03-02T10:21:46;7.90;99.90
21830;DHT22;11077;50.264;6.798;2024-03-02T10:24:13;7.90;99.90
21830;DHT22;11077;50.264;6.798;2024-03-02T10:26:40;7.90;99.90
21830;DHT22;11077;50.264;6.798;2024-03-02T10:29:10;7.90;99.90
21830;DHT22;11077;50.264;6.798;2024-03-02T10:31:38;7.90;99.90
21830;DHT22;11077;50.264;6.798;2024-03-02T10:34:07;8.00;99.90
21830;DHT22;11077;50.264;6.798;2024-03-02T10:36:35;8.00;99.90
21830;DHT22;11077;50.264;6.798;2024-03-02T10:39:03;8.10;99.90
21830;DHT22;11077;50.264;6.798;2024-03-02T10:41:32;8.20;99.90
21830;DHT22;11077;50.264;6.798;2024-03-02T10:44:02;8.30;99.90
21830;DHT22;11077;50.264;6.798;2024-03-02T10:46:31;8.30;99.90
21830;DHT22;11077;50.264;6.798;2024-03-02T10:48:59;8.30;99.90
21830;DHT22;11077;50.264;6.798;2024-03-02T10:51:30;8.30;99.90
21830;DHT22;11077;50.264;6.798;2024-03-02T10:53:58;8.30;99.90
21830;DHT22;11077;50.264;6.798;2024-03-02T10:56:28;8.40;99.90
21830;DHT22;11077;50.264;6.798;2024-03-02T10:59:02;8.40;99.90
21830;DHT22;11077;50.264;6.798;2024-03-02T11:01:32;8.40;99.90
21830;DHT22;11077;50.264;6.798;2024-03-02T11:04:02;8.40;99.90
21830;DHT22;11077;50.264;6.798;2024-03-02T11:06:34;8.40;99.90
21830;DHT22;11077;50.264;6.798;2024-03-02T11:09:07;8.40;99.90
21830;DHT22;11077;50.264;6.798;2024-03-02T11:11:37;8.30;99.90
21830;DHT22;11077;50.264;6.798;2024-03-02T11:14:10;8.30;99.90
21830;DHT22;11077;50.264;6.798;2024-03-02T11:16:39;8.20;99.90
21830;DHT22;11077;50.264;6.798;2024-03-02T11:19:10;8.20;99.90
21830;DHT22;11077;50.264;6.798;2024-03-02T11:21:39;8.20;99.90
21830;DHT22;11077;50.264;6.798;2024-03-02T11:24:29;8.30;99.90
21830;DHT22;11077;50.264;6.798;2024-03-02T11:27:00;8.40;99.90
21830;DHT22;11077;50.264;6.798;2024-03-02T11:29:43;8.40;99.90
21830;DHT22;11077;50.264;6.798;2024-03-02T11:32:20;8.40;99.90
21830;DHT22;11077;50.264;6.798;2024-03-02T11:34:48;8.30;99.90
21830;DHT22;11077;50.264;6.798;2024-03-02T11:37:19;8.20;99.90
21830;DHT22;11077;50.264;6.798;2024-03-02T11:39:49;8.20;99.90
21830;DHT22;11077;50.264;6.798;2024-03-02T11:42:17;8.20;99.90
21830;DHT22;11077;50.264;6.798;2024-03-02T11:44:46;8.20;99.90
21830;DHT22;11077;50.264;6.798;2024-03-02T11:47:15;8.30;99.90
21830;DHT22;11077;50.264;6.798;2024-03-02T11:49:44;8.40;99.90
21830;DHT22;11077;50.264;6.798;2024-03-02T11:52:13;8.50;99.90
21830;DHT22;11077;50.264;6.798;2024-03-02T11:54:43;8.50;99.90
21830;DHT22;11077;50.264;6.798;2024-03-02T11:57:15;8.60;99.90
21830;DHT22;11077;50.264;6.798;2024-03-02T11:59:43;8.60;99.90
21830;DHT22;11077;50.264;6.798;2024-03-02T12:02:18;8.70;99.90
21830;DHT22;11077;50.264;6.798;2024-03-02T12:04:46;8.70;99.90
21830;DHT22;11077;50.264;6.798;2024-03-02T12:07:19;8.70;99.90
21830;DHT22;11077;50.264;6.798;2024-03-02T12:09:59;8.90;99.90
21830;DHT22;11077;50.264;6.798;2024-03-02T12:12:27;9.10;99.90
21830;DHT22;11077;50.264;6.798;2024-03-02T12:14:54;9.20;99.90
21830;DHT22;11077;50.264;6.798;2024-03-02T12:17:22;9.30;99.90
21830;DHT22;11077;50.264;6.798;2024-03-02T12:19:49;9.30;99.90
21830;DHT22;11077;50.264;6.798;2024-03-02T12:22:16;9.30;99.90
21830;DHT22;11077;50.264;6.798;2024-03-02T12:24:44;9.30;99.90
21830;DHT22;11077;50.264;6.798;2024-03-02T12:27:15;9.40;99.90
21830;DHT22;11077;50.264;6.798;2024-03-02T12:29:44;9.40;99.90
21830;DHT22;11077;50.264;6.798;2024-03-02T12:32:11;9.50;99.90
21830;DHT22;11077;50.264;6.798;2024-03-02T12:34:38;9.60;99.90
21830;DHT22;11077;50.264;6.798;2024-03-02T12:37:06;9.70;99.90
21830;DHT22;11077;50.264;6.798;2024-03-02T12:39:33;9.70;99.90
21830;DHT22;11077;50.264;6.798;2024-03-02T12:42:03;9.60;99.90
21830;DHT22;11077;50.264;6.798;2024-03-02T12:44:34;9.70;99.90
21830;DHT22;11077;50.264;6.798;2024-03-02T12:47:01;9.70;99.90
21830;DHT22;11077;50.264;6.798;2024-03-02T12:49:29;9.70;99.90
21830;DHT22;11077;50.264;6.798;2024-03-02T12:51:56;9.70;99.90
21830;DHT22;11077;50.264;6.798;2024-03-02T12:54:24;9.80;99.90
21830;DHT22;11077;50.264;6.798;2024-03-02T12:56:52;10.00;99.90
21830;DHT22;11077;50.264;6.798;2024-03-02T12:59:21;10.10;99.90
21830;DHT22;11077;50.264;6.798;2024-03-02T13:01:53;10.30;99.90
21830;DHT22;11077;50.264;6.798;2024-03-02T13:04:24;10.50;99.90
21830;DHT22;11077;50.264;6.798;2024-03-02T13:06:52;10.50;99.90
21830;DHT22;11077;50.264;6.798;2024-03-02T13:09:20;10.60;99.90
21830;DHT22;11077;50.264;6.798;2024-03-02T13:11:48;10.60;99.90
21830;DHT22;11077;50.264;6.798;2024-03-02T13:14:16;10.60;99.90
21830;DHT22;11077;50.264;6.798;2024-03-02T13:16:44;10.50;99.90
21830;DHT22;11077;50.264;6.798;2024-03-02T13:19:14;10.50;99.90
21830;DHT22;11077;50.264;6.798;2024-03-02T13:21:41;10.50;99.90
21830;DHT22;11077;50.264;6.798;2024-03-02T13:24:08;10.50;99.90
21830;DHT22;11077;50.264;6.798;2024-03-02T13:26:36;10.60;99.90
21830;DHT22;11077;50.264;6.798;2024-03-02T13:29:03;10.60;99.90
21830;DHT22;11077;50.264;6.798;2024-03-02T13:31:30;10.60;99.90
21830;DHT22;11077;50.264;6.798;2024-03-02T13:33:57;10.50;99.90
21830;DHT22;11077;50.264;6.798;2024-03-02T13:36:29;10.50;99.90
21830;DHT22;11077;50.264;6.798;2024-03-02T13:38:57;10.40;99.90
21830;DHT22;11077;50.264;6.798;2024-03-02T13:41:25;10.40;99.90
21830;DHT22;11077;50.264;6.798;2024-03-02T13:43:52;10.50;99.90
21830;DHT22;11077;50.264;6.798;2024-03-02T13:46:20;10.40;99.90
21830;DHT22;11077;50.264;6.798;2024-03-02T13:48:48;10.40;99.90
21830;DHT22;11077;50.264;6.798;2024-03-02T13:51:15;10.40;99.90
21830;DHT22;11077;50.264;6.798;2024-03-02T13:53:43;10.40;99.90
21830;DHT22;11077;50.264;6.798;2024-03-02T13:56:11;10.40;99.90
21830;DHT22;11077;50.264;6.798;2024-03-02T13:58:38;10.30;99.90
21830;DHT22;11077;50.264;6.798;2024-03-02T14:01:05;10.40;99.90
21830;DHT22;11077;50.264;6.798;2024-03-02T14:03:33;10.40;99.90
21830;DHT22;11077;50.264;6.798;2024-03-02T14:06:00;10.40;99.90
21830;DHT22;11077;50.264;6.798;2024-03-02T14:08:28;10.40;99.90
21830;DHT22;11077;50.264;6.798;2024-03-02T14:10:57;10.40;99.90
21830;DHT22;11077;50.264;6.798;2024-03-02T14:13:26;10.50;99.90
21830;DHT22;11077;50.264;6.798;2024-03-02T14:15:53;10.60;99.90
21830;DHT22;11077;50.264;6.798;2024-03-02T14:18:20;10.70;99.90
21830;DHT22;11077;50.264;6.798;2024-03-02T14:20:48;10.90;99.90
21830;DHT22;11077;50.264;6.798;2024-03-02T14:23:18;11.00;99.90
21830;DHT22;11077;50.264;6.798;2024-03-02T14:25:46;11.20;99.90
21830;DHT22;11077;50.264;6.798;2024-03-02T14:28:15;11.30;99.90
21830;DHT22;11077;50.264;6.798;2024-03-02T14:30:44;11.30;99.90
21830;DHT22;11077;50.264;6.798;2024-03-02T14:33:11;11.30;99.90
21830;DHT22;11077;50.264;6.798;2024-03-02T14:35:39;11.20;99.90
21830;DHT22;11077;50.264;6.798;2024-03-02T14:38:06;11.10;99.90
21830;DHT22;11077;50.264;6.798;2024-03-02T14:40:34;11.00;99.90
21830;DHT22;11077;50.264;6.798;2024-03-02T14:43:01;10.90;99.90
21830;DHT22;11077;50.264;6.798;2024-03-02T14:45:30;10.80;99.90
21830;DHT22;11077;50.264;6.798;2024-03-02T14:47:57;10.80;99.90
21830;DHT22;11077;50.264;6.798;2024-03-02T14:50:25;10.70;99.90
21830;DHT22;11077;50.264;6.798;2024-03-02T14:52:52;10.70;99.90
21830;DHT22;11077;50.264;6.798;2024-03-02T14:55:23;10.60;99.90
21830;DHT22;11077;50.264;6.798;2024-03-02T14:57:58;10.60;99.90
21830;DHT22;11077;50.264;6.798;2024-03-02T15:00:28;10.60;99.90
21830;DHT22;11077;50.264;6.798;2024-03-02T15:02:56;10.50;99.90
21830;DHT22;11077;50.264;6.798;2024-03-02T15:05:22;10.40;99.90
21830;DHT22;11077;50.264;6.798;2024-03-02T15:07:52;10.40;99.90
21830;DHT22;11077;50.264;6.798;2024-03-02T15:10:19;10.40;99.90
21830;DHT22;11077;50.264;6.798;2024-03-02T15:12:47;10.30;99.90
21830;DHT22;11077;50.264;6.798;2024-03-02T15:15:14;10.30;99.90
21830;DHT22;11077;50.264;6.798;2024-03-02T15:17:44;10.30;99.90
21830;DHT22;11077;50.264;6.798;2024-03-02T15:20:11;10.20;99.90
21830;DHT22;11077;50.264;6.798;2024-03-02T15:22:38;10.20;99.90
21830;DHT22;11077;50.264;6.798;2024-03-02T15:25:06;10.10;99.90
21830;DHT22;11077;50.264;6.798;2024-03-02T15:27:34;10.10;99.90
21830;DHT22;11077;50.264;6.798;2024-03-02T15:30:01;10.10;99.90
21830;DHT22;11077;50.264;6.798;2024-03-02T15:32:28;10.10;99.90
21830;DHT22;11077;50.264;6.798;2024-03-02T15:34:57;10.10;99.90
21830;DHT22;11077;50.264;6.798;2024-03-02T15:37:25;10.10;99.90
21830;DHT22;11077;50.264;6.798;2024-03-02T15:39:52;10.00;99.90
21830;DHT22;11077;50.264;6.798;2024-03-02T15:42:20;10.00;99.90
21830;DHT22;11077;50.264;6.798;2024-03-02T15:44:49;10.00;99.90
21830;DHT22;11077;50.264;6.798;2024-03-02T15:47:16;10.00;99.90
21830;DHT22;11077;50.264;6.798;2024-03-02T15:49:44;10.00;99.90
21830;DHT22;11077;50.264;6.798;2024-03-02T15:52:12;9.90;99.90